createdAt,value
2022-08-08T00:00:52.850Z,99.90
2022-08-08T00:02:37.300Z,99.90
2022-08-08T00:05:13.393Z,99.90
2022-08-08T00:07:52.834Z,99.90
2022-08-08T00:10:28.474Z,99.90
2022-08-08T00:13:10.207Z,99.90
2022-08-08T00:15:56.955Z,99.90
2022-08-08T00:18:35.777Z,99.90
2022-08-08T00:21:07.861Z,99.90
2022-08-08T00:23:47.481Z,99.90
2022-08-08T00:26:29.606Z,99.90
2022-08-08T00:29:08.150Z,99.90
2022-08-08T00:32:07.840Z,99.90
2022-08-08T00:35:18.658Z,99.90
2022-08-08T00:38:03.927Z,99.90
2022-08-08T00:41:09.730Z,99.90
2022-08-08T00:44:00.911Z,99.90
2022-08-08T00:47:19.954Z,99.90
2022-08-08T00:50:52.371Z,99.90
2022-08-08T00:53:43.768Z,99.90
2022-08-08T00:56:59.992Z,99.90
2022-08-08T00:59:53.670Z,99.90
2022-08-08T01:03:57.934Z,99.90
2022-08-08T01:06:39.509Z,99.90
2022-08-08T01:09:50.865Z,99.90
2022-08-08T01:12:54.585Z,99.90
2022-08-08T01:15:56.683Z,99.90
2022-08-08T01:18:52.782Z,99.90
2022-08-08T01:22:12.119Z,99.90
2022-08-08T01:24:58.209Z,99.90
2022-08-08T01:28:02.183Z,99.90
2022-08-08T01:32:12.739Z,99.90
2022-08-08T01:34:46.418Z,99.90
2022-08-08T01:37:57.450Z,99.90
2022-08-08T01:41:02.915Z,99.90
2022-08-08T01:43:44.032Z,99.90
2022-08-08T01:46:39.661Z,99.90
2022-08-08T01:49:23.405Z,99.90
2022-08-08T01:52:57.336Z,99.90
2022-08-08T01:56:26.210Z,99.90
2022-08-08T01:58:38.108Z,99.90
2022-08-08T02:01:20.656Z,99.90
2022-08-08T02:04:07.065Z,99.90
2022-08-08T02:06:55.357Z,99.90
2022-08-08T02:10:04.131Z,99.90
2022-08-08T02:12:44.947Z,99.90
2022-08-08T02:15:20.611Z,99.90
2022-08-08T02:17:59.803Z,99.90
2022-08-08T02:21:01.004Z,99.90
2022-08-08T02:23:31.610Z,99.90
2022-08-08T02:26:09.995Z,99.90
2022-08-08T02:28:52.435Z,99.90
2022-08-08T02:31:58.987Z,99.90
2022-08-08T02:35:11.337Z,99.90
2022-08-08T02:37:57.047Z,99.90
2022-08-08T02:40:43.712Z,99.90
2022-08-08T02:44:38.104Z,99.90
2022-08-08T02:46:54.691Z,99.90
2022-08-08T02:49:56.908Z,99.90
2022-08-08T02:52:42.382Z,99.90
2022-08-08T02:55:57.728Z,99.90
2022-08-08T02:59:26.106Z,99.90
2022-08-08T03:02:35.634Z,99.90
2022-08-08T03:05:45.093Z,99.90
2022-08-08T03:08:55.112Z,99.90
2022-08-08T03:12:13.922Z,99.90
2022-08-08T03:15:59.619Z,99.90
2022-08-08T03:17:59.697Z,99.90
2022-08-08T03:20:47.087Z,99.90
2022-08-08T03:23:24.486Z,99.90
2022-08-08T03:26:08.381Z,99.90
2022-08-08T03:28:42.667Z,99.90
2022-08-08T03:31:26.628Z,99.90
2022-08-08T03:34:00.570Z,99.90
2022-08-08T03:36:31.333Z,99.90
2022-08-08T03:39:14.855Z,99.90
2022-08-08T03:42:28.314Z,99.90
2022-08-08T03:44:38.621Z,99.90
2022-08-08T03:47:20.057Z,99.90
2022-08-08T03:49:59.680Z,99.90
2022-08-08T03:52:34.107Z,99.90
2022-08-08T03:55:55.066Z,99.90
2022-08-08T03:58:36.213Z,99.90
2022-08-08T04:01:02.821Z,99.90
2022-08-08T04:03:58.867Z,99.90
2022-08-08T04:06:34.628Z,99.90
2022-08-08T04:09:11.186Z,99.90
2022-08-08T04:11:58.930Z,99.90
2022-08-08T04:14:39.450Z,99.90
2022-08-08T04:17:22.311Z,99.90
2022-08-08T04:20:02.127Z,99.90
2022-08-08T04:22:33.136Z,99.90
2022-08-08T04:25:02.257Z,99.90
2022-08-08T04:28:02.346Z,99.90
2022-08-08T04:30:21.861Z,99.90
2022-08-08T04:32:53.273Z,99.90
2022-08-08T04:35:24.328Z,99.90
2022-08-08T04:37:55.167Z,99.90
2022-08-08T04:40:28.116Z,99.90
2022-08-08T04:43:01.111Z,99.90
2022-08-08T04:45:43.711Z,99.90
2022-08-08T04:48:11.803Z,99.90
2022-08-08T04:50:46.206Z,99.90
2022-08-08T04:54:26.766Z,99.90
2022-08-08T04:56:08.259Z,99.90
2022-08-08T04:58:38.979Z,99.90
2022-08-08T05:01:11.122Z,99.90
2022-08-08T05:04:09.956Z,99.90
2022-08-08T05:06:39.284Z,99.90
2022-08-08T05:09:08.942Z,99.90
2022-08-08T05:11:41.054Z,99.90
2022-08-08T05:14:14.143Z,99.90
2022-08-08T05:16:52.271Z,99.90
2022-08-08T05:20:10.476Z,99.90
2022-08-08T05:22:17.644Z,99.90
2022-08-08T05:24:49.387Z,99.90
2022-08-08T05:27:21.601Z,99.90
2022-08-08T05:29:52.507Z,99.90
2022-08-08T05:32:27.229Z,99.90
2022-08-08T05:35:04.837Z,99.90
2022-08-08T05:37:52.800Z,99.90
2022-08-08T05:40:27.996Z,99.90
2022-08-08T05:43:03.207Z,99.90
2022-08-08T05:45:53.115Z,99.90
2022-08-08T05:48:28.881Z,99.90
2022-08-08T05:51:14.860Z,99.90
2022-08-08T05:54:26.083Z,99.90
2022-08-08T05:56:42.568Z,99.90
2022-08-08T05:59:53.800Z,99.90
2022-08-08T06:02:38.691Z,99.90
2022-08-08T06:05:33.634Z,99.90
2022-08-08T06:08:02.733Z,99.90
2022-08-08T06:10:34.913Z,99.60
2022-08-08T06:13:08.252Z,98.80
2022-08-08T06:15:50.652Z,98.60
2022-08-08T06:18:30.152Z,99.00
2022-08-08T06:20:59.633Z,98.70
2022-08-08T06:23:52.966Z,98.10
2022-08-08T06:26:44.803Z,98.20
2022-08-08T06:29:56.660Z,97.40
2022-08-08T06:32:17.413Z,97.20
2022-08-08T06:34:57.706Z,97.40
2022-08-08T06:37:50.910Z,96.60
2022-08-08T06:40:27.053Z,96.10
2022-08-08T06:42:57.753Z,96.20
2022-08-08T06:45:34.059Z,95.60
2022-08-08T06:48:04.535Z,96.30
2022-08-08T06:50:40.264Z,95.90
2022-08-08T06:53:17.357Z,96.70
2022-08-08T06:56:02.550Z,95.30
2022-08-08T06:58:35.062Z,95.90
2022-08-08T07:01:24.577Z,95.90
2022-08-08T07:04:36.923Z,96.70
2022-08-08T07:07:01.950Z,95.20
2022-08-08T07:09:59.753Z,95.30
2022-08-08T07:12:42.969Z,94.60
2022-08-08T07:15:23.446Z,94.00
2022-08-08T07:18:34.647Z,93.10
2022-08-08T07:20:58.419Z,93.30
2022-08-08T07:24:02.097Z,91.70
2022-08-08T07:26:32.841Z,91.80
2022-08-08T07:29:08.220Z,91.70
2022-08-08T07:31:49.625Z,91.20
2022-08-08T07:34:20.054Z,90.40
2022-08-08T07:36:58.562Z,90.60
2022-08-08T07:39:45.781Z,88.00
2022-08-08T07:42:32.901Z,90.00
2022-08-08T07:45:03.110Z,88.50
2022-08-08T07:47:39.015Z,88.20
2022-08-08T07:50:10.694Z,87.40
2022-08-08T07:52:44.311Z,87.70
2022-08-08T07:55:23.327Z,84.10
2022-08-08T07:58:14.614Z,85.50
2022-08-08T08:00:49.369Z,85.90
2022-08-08T08:03:28.384Z,87.30
2022-08-08T08:06:00.430Z,86.40
2022-08-08T08:08:50.301Z,83.60
2022-08-08T08:11:33.667Z,83.70
2022-08-08T08:14:09.697Z,85.50
2022-08-08T08:16:48.509Z,84.70
2022-08-08T08:19:19.686Z,85.80
2022-08-08T08:21:57.223Z,85.80
2022-08-08T08:24:42.940Z,85.30
2022-08-08T08:27:27.706Z,82.80
2022-08-08T08:29:58.280Z,85.00
2022-08-08T08:32:36.479Z,82.50
2022-08-08T08:35:11.286Z,83.00
2022-08-08T08:38:12.912Z,83.90
2022-08-08T08:40:32.720Z,80.60
2022-08-08T08:43:08.981Z,83.30
2022-08-08T08:45:44.339Z,79.90
2022-08-08T08:48:16.375Z,82.40
2022-08-08T08:50:53.289Z,80.50
2022-08-08T08:53:28.305Z,79.70
2022-08-08T08:56:18.332Z,78.00
2022-08-08T08:58:57.948Z,78.00
2022-08-08T09:01:35.000Z,76.70
2022-08-08T09:04:31.745Z,75.20
2022-08-08T09:07:12.629Z,76.40
2022-08-08T09:09:47.803Z,74.70
2022-08-08T09:12:24.477Z,75.40
2022-08-08T09:14:56.702Z,74.90
2022-08-08T09:17:31.845Z,75.90
2022-08-08T09:22:01.322Z,72.70
2022-08-08T09:23:03.454Z,72.50
2022-08-08T09:25:47.451Z,73.20
2022-08-08T09:28:37.855Z,73.30
2022-08-08T09:31:15.479Z,73.00
2022-08-08T09:34:14.665Z,74.20
2022-08-08T09:36:51.757Z,70.90
2022-08-08T09:39:36.620Z,73.50
2022-08-08T09:42:20.411Z,74.10
2022-08-08T09:45:04.082Z,73.70
2022-08-08T09:48:10.028Z,73.60
2022-08-08T09:50:32.539Z,74.60
2022-08-08T09:53:14.373Z,71.20
2022-08-08T09:56:04.465Z,74.50
2022-08-08T09:58:41.610Z,73.90
2022-08-08T10:01:58.618Z,75.00
2022-08-08T10:04:05.252Z,74.10
2022-08-08T10:06:35.898Z,74.80
2022-08-08T10:09:08.539Z,71.80
2022-08-08T10:12:26.756Z,74.40
2022-08-08T10:14:38.418Z,72.50
2022-08-08T10:18:08.530Z,74.10
2022-08-08T10:20:04.164Z,75.30
2022-08-08T10:22:35.872Z,72.60
2022-08-08T10:25:07.290Z,71.30
2022-08-08T10:27:44.659Z,73.30
2022-08-08T10:30:56.903Z,73.30
2022-08-08T10:33:03.256Z,75.10
2022-08-08T10:36:20.417Z,70.80
2022-08-08T10:38:23.776Z,71.70
2022-08-08T10:40:53.953Z,71.20
2022-08-08T10:43:23.447Z,70.70
2022-08-08T10:45:57.202Z,71.50
2022-08-08T10:48:37.223Z,72.20
2022-08-08T10:51:14.633Z,73.00
2022-08-08T10:53:57.281Z,70.00
2022-08-08T10:56:34.894Z,70.80
2022-08-08T10:59:08.291Z,69.20
2022-08-08T11:01:39.534Z,71.70
2022-08-08T11:04:11.884Z,70.00
2022-08-08T11:06:47.389Z,70.80
2022-08-08T11:09:21.366Z,70.00
2022-08-08T11:12:05.160Z,66.30
2022-08-08T11:14:53.756Z,67.80
2022-08-08T11:18:00.688Z,69.80
2022-08-08T11:20:17.879Z,70.60
2022-08-08T11:22:52.550Z,66.40
2022-08-08T11:25:52.100Z,68.10
2022-08-08T11:28:15.867Z,67.90
2022-08-08T11:30:50.053Z,67.50
2022-08-08T11:33:35.289Z,70.10
2022-08-08T11:36:15.456Z,68.00
2022-08-08T11:38:54.818Z,67.40
2022-08-08T11:41:24.981Z,67.70
2022-08-08T11:43:57.752Z,67.20
2022-08-08T11:46:28.160Z,67.80
2022-08-08T11:48:59.575Z,66.80
2022-08-08T11:51:37.350Z,67.80
2022-08-08T11:54:32.476Z,67.30
2022-08-08T11:57:13.918Z,66.20
2022-08-08T12:00:00.183Z,69.50
2022-08-08T12:02:48.722Z,67.40
2022-08-08T12:05:22.677Z,66.60
2022-08-08T12:07:52.472Z,70.10
2022-08-08T12:10:23.664Z,67.70
2022-08-08T12:13:02.005Z,66.00
2022-08-08T12:15:42.450Z,64.70
2022-08-08T12:18:21.518Z,66.90
2022-08-08T12:20:54.254Z,65.70
2022-08-08T12:23:40.022Z,65.50
2022-08-08T12:26:17.198Z,66.00
2022-08-08T12:28:58.372Z,62.90
2022-08-08T12:31:39.499Z,65.20
2022-08-08T12:34:36.441Z,65.80
2022-08-08T12:37:08.569Z,63.40
2022-08-08T12:40:00.234Z,65.20
2022-08-08T12:42:32.872Z,63.60
2022-08-08T12:45:19.903Z,62.60
2022-08-08T12:48:09.977Z,64.50
2022-08-08T12:50:49.711Z,61.60
2022-08-08T12:53:23.865Z,64.50
2022-08-08T12:56:17.418Z,64.90
2022-08-08T12:58:51.430Z,65.60
2022-08-08T13:01:29.530Z,64.60
2022-08-08T13:04:19.217Z,62.60
2022-08-08T13:07:02.934Z,62.20
2022-08-08T13:09:57.571Z,62.40
2022-08-08T13:12:29.248Z,61.50
2022-08-08T13:15:03.234Z,62.10
2022-08-08T13:17:53.889Z,62.80
2022-08-08T13:20:25.962Z,64.90
2022-08-08T13:23:36.534Z,62.50
2022-08-08T13:25:50.462Z,61.90
2022-08-08T13:28:32.490Z,63.20
2022-08-08T13:31:04.042Z,64.80
2022-08-08T13:33:42.284Z,64.20
2022-08-08T13:36:12.163Z,62.10
2022-08-08T13:38:40.936Z,63.10
2022-08-08T13:41:16.720Z,63.40
2022-08-08T13:43:47.096Z,62.40
2022-08-08T13:46:27.219Z,63.20
2022-08-08T13:50:33.264Z,62.50
2022-08-08T13:51:56.338Z,62.90
2022-08-08T13:54:29.317Z,61.70
2022-08-08T13:57:08.830Z,60.90
2022-08-08T13:59:47.878Z,61.40
2022-08-08T14:02:20.832Z,60.00
2022-08-08T14:04:57.491Z,59.20
2022-08-08T14:07:35.921Z,60.90
2022-08-08T14:10:11.784Z,62.70
2022-08-08T14:12:46.713Z,61.40
2022-08-08T14:15:31.142Z,62.30
2022-08-08T14:18:34.561Z,62.40
2022-08-08T14:21:03.678Z,62.80
2022-08-08T14:24:07.820Z,64.40
2022-08-08T14:26:33.224Z,65.70
2022-08-08T14:29:06.073Z,64.90
2022-08-08T14:32:10.821Z,63.60
2022-08-08T14:34:39.067Z,63.60
2022-08-08T14:37:08.725Z,65.70
2022-08-08T14:39:47.859Z,62.70
2022-08-08T14:42:26.649Z,62.20
2022-08-08T14:44:57.872Z,61.00
2022-08-08T14:47:30.274Z,64.80
2022-08-08T14:50:15.108Z,63.90
2022-08-08T14:52:57.114Z,65.70
2022-08-08T14:55:35.212Z,64.60
2022-08-08T14:58:12.012Z,65.80
2022-08-08T15:00:44.761Z,64.80
2022-08-08T15:03:15.977Z,62.90
2022-08-08T15:05:53.533Z,63.90
2022-08-08T15:08:33.387Z,64.30
2022-08-08T15:11:04.188Z,64.10
2022-08-08T15:13:40.315Z,63.90
2022-08-08T15:16:12.158Z,63.20
2022-08-08T15:18:49.935Z,64.60
2022-08-08T15:21:21.153Z,64.30
2022-08-08T15:23:51.181Z,63.10
2022-08-08T15:26:20.625Z,64.20
2022-08-08T15:28:50.935Z,62.40
2022-08-08T15:31:56.339Z,61.90
2022-08-08T15:34:29.828Z,63.20
2022-08-08T15:37:03.293Z,63.90
2022-08-08T15:39:37.909Z,64.00
2022-08-08T15:42:18.058Z,64.30
2022-08-08T15:44:58.662Z,63.80
2022-08-08T15:47:26.665Z,63.50
2022-08-08T15:49:55.664Z,62.70
2022-08-08T15:52:25.990Z,63.50
2022-08-08T15:54:55.020Z,63.30
2022-08-08T15:57:24.403Z,63.50
2022-08-08T16:00:05.220Z,63.30
2022-08-08T16:02:44.189Z,64.00
2022-08-08T16:05:19.561Z,63.40
2022-08-08T16:07:52.335Z,64.00
2022-08-08T16:13:09.810Z,63.10
2022-08-08T16:13:30.874Z,63.30
2022-08-08T16:16:09.546Z,63.60
2022-08-08T16:18:53.379Z,63.60
2022-08-08T16:21:29.120Z,63.30
2022-08-08T16:24:00.128Z,63.40
2022-08-08T16:26:34.273Z,64.00
2022-08-08T16:29:08.200Z,64.20
2022-08-08T16:31:40.816Z,64.40
2022-08-08T16:34:10.246Z,64.20
2022-08-08T16:36:40.730Z,64.50
2022-08-08T16:39:27.974Z,64.10
2022-08-08T16:42:01.082Z,64.90
2022-08-08T16:44:34.285Z,64.80
2022-08-08T16:47:21.708Z,64.80
2022-08-08T16:50:01.276Z,64.60
2022-08-08T16:55:06.470Z,65.20
2022-08-08T16:55:42.651Z,66.20
2022-08-08T16:58:14.159Z,67.00
2022-08-08T17:00:48.911Z,66.70
2022-08-08T17:03:25.221Z,67.10
2022-08-08T17:06:37.591Z,67.60
2022-08-08T17:08:57.431Z,67.70
2022-08-08T17:11:28.017Z,67.60
2022-08-08T17:14:11.602Z,67.60
2022-08-08T17:16:57.392Z,68.10
2022-08-08T17:19:27.273Z,66.90
2022-08-08T17:21:55.655Z,68.40
2022-08-08T17:24:27.745Z,68.80
2022-08-08T17:27:01.263Z,67.80
2022-08-08T17:29:34.089Z,68.90
2022-08-08T17:32:08.001Z,68.20
2022-08-08T17:35:00.189Z,68.70
2022-08-08T17:37:25.853Z,69.00
2022-08-08T17:40:12.402Z,68.50
2022-08-08T17:42:47.233Z,69.70
2022-08-08T17:45:23.412Z,68.90
2022-08-08T17:47:54.758Z,70.10
2022-08-08T17:50:23.882Z,70.70
2022-08-08T17:52:52.847Z,69.60
2022-08-08T17:56:05.884Z,69.90
2022-08-08T17:58:12.338Z,70.30
2022-08-08T18:00:41.362Z,71.20
2022-08-08T18:03:13.062Z,70.30
2022-08-08T18:05:49.441Z,70.90
2022-08-08T18:08:25.088Z,70.80
2022-08-08T18:11:11.634Z,71.00
2022-08-08T18:13:45.679Z,70.80
2022-08-08T18:16:16.722Z,70.90
2022-08-08T18:18:54.019Z,71.40
2022-08-08T18:21:59.956Z,71.90
2022-08-08T18:24:19.086Z,71.50
2022-08-08T18:26:54.346Z,71.70
2022-08-08T18:29:32.907Z,71.90
2022-08-08T18:32:04.169Z,72.20
2022-08-08T18:34:33.399Z,72.60
2022-08-08T18:37:04.729Z,73.10
2022-08-08T18:39:36.539Z,75.20
2022-08-08T18:42:12.964Z,75.60
2022-08-08T18:44:55.013Z,75.60
2022-08-08T18:47:28.386Z,76.70
2022-08-08T18:50:02.768Z,77.30
2022-08-08T18:52:33.825Z,78.40
2022-08-08T18:55:10.880Z,78.80
2022-08-08T18:57:43.344Z,80.00
2022-08-08T19:00:20.148Z,80.60
2022-08-08T19:02:56.646Z,81.40
2022-08-08T19:05:34.277Z,81.50
2022-08-08T19:08:24.708Z,82.60
2022-08-08T19:10:57.767Z,83.10
2022-08-08T19:13:52.378Z,83.50
2022-08-08T19:16:19.433Z,84.00
2022-08-08T19:18:54.556Z,84.50
2022-08-08T19:21:30.509Z,85.00
2022-08-08T19:24:01.297Z,85.40
2022-08-08T19:26:35.014Z,85.80
2022-08-08T19:29:04.723Z,85.80
2022-08-08T19:31:36.950Z,85.50
2022-08-08T19:34:35.764Z,85.20
2022-08-08T19:36:55.442Z,85.40
2022-08-08T19:39:30.914Z,85.70
2022-08-08T19:42:06.924Z,86.10
2022-08-08T19:44:45.916Z,86.10
2022-08-08T19:47:24.578Z,86.20
2022-08-08T19:49:59.433Z,86.40
2022-08-08T19:52:35.171Z,86.50
2022-08-08T19:55:09.404Z,87.10
2022-08-08T19:57:41.184Z,87.30
2022-08-08T20:00:30.082Z,87.70
2022-08-08T20:03:14.576Z,88.20
2022-08-08T20:06:13.400Z,88.70
2022-08-08T20:08:32.300Z,89.20
2022-08-08T20:11:01.064Z,89.60
2022-08-08T20:14:34.698Z,89.80
2022-08-08T20:16:18.490Z,90.00
2022-08-08T20:18:53.160Z,90.20
2022-08-08T20:21:23.147Z,90.40
2022-08-08T20:23:57.542Z,90.70
2022-08-08T20:26:33.806Z,90.80
2022-08-08T20:29:02.973Z,91.10
2022-08-08T20:32:06.938Z,91.30
2022-08-08T20:34:29.794Z,91.50
2022-08-08T20:37:00.968Z,91.70
2022-08-08T20:39:39.599Z,91.80
2022-08-08T20:42:20.390Z,91.80
2022-08-08T20:44:51.894Z,92.00
2022-08-08T20:47:23.169Z,92.00
2022-08-08T20:49:55.871Z,92.20
2022-08-08T20:52:27.709Z,92.40
2022-08-08T20:54:56.414Z,92.60
2022-08-08T20:57:27.737Z,92.80
2022-08-08T20:59:56.319Z,93.00
2022-08-08T21:02:25.706Z,93.50
2022-08-08T21:04:57.337Z,93.70
2022-08-08T21:07:47.134Z,94.20
2022-08-08T21:10:17.827Z,94.50
2022-08-08T21:12:54.251Z,95.00
2022-08-08T21:16:05.970Z,95.40
2022-08-08T21:18:11.888Z,95.80
2022-08-08T21:20:41.919Z,96.10
2022-08-08T21:23:13.098Z,96.40
2022-08-08T21:25:46.133Z,96.50
2022-08-08T21:28:33.334Z,96.70
2022-08-08T21:31:21.903Z,97.00
2022-08-08T21:33:51.488Z,97.00
2022-08-08T21:36:28.688Z,97.50
2022-08-08T21:38:58.233Z,97.70
2022-08-08T21:41:38.300Z,98.10
2022-08-08T21:44:16.193Z,98.40
2022-08-08T21:48:07.945Z,98.60
2022-08-08T21:49:34.006Z,98.60
2022-08-08T21:54:35.368Z,98.90
2022-08-08T21:54:58.230Z,99.30
2022-08-08T21:57:41.893Z,99.90
2022-08-08T22:00:14.578Z,99.90
2022-08-08T22:02:44.129Z,99.90
2022-08-08T22:05:14.670Z,99.90
2022-08-08T22:07:48.093Z,99.90
2022-08-08T22:10:32.137Z,99.90
2022-08-08T22:13:17.388Z,99.90
2022-08-08T22:15:59.268Z,99.90
2022-08-08T22:18:30.122Z,99.90
2022-08-08T22:21:01.543Z,99.90
2022-08-08T22:23:49.573Z,99.90
2022-08-08T22:26:28.733Z,99.90
2022-08-08T22:29:13.131Z,99.90
2022-08-08T22:32:01.554Z,99.90
2022-08-08T22:34:32.267Z,99.90
2022-08-08T22:37:00.746Z,99.90
2022-08-08T22:39:45.928Z,99.90
2022-08-08T22:42:26.984Z,99.90
2022-08-08T22:44:56.125Z,99.90
2022-08-08T22:47:24.527Z,99.90
2022-08-08T22:50:09.870Z,99.90
2022-08-08T22:54:15.753Z,99.90
2022-08-08T22:55:58.101Z,99.90
2022-08-08T22:58:30.956Z,99.90
2022-08-08T23:01:00.045Z,99.90
2022-08-08T23:03:34.457Z,99.90
2022-08-08T23:06:16.934Z,99.90
2022-08-08T23:08:55.062Z,99.90
2022-08-08T23:12:17.282Z,99.90
2022-08-08T23:14:16.237Z,99.90
2022-08-08T23:16:47.175Z,99.90
2022-08-08T23:19:21.190Z,99.90
2022-08-08T23:21:49.532Z,99.90
2022-08-08T23:24:22.540Z,99.90
2022-08-08T23:26:55.775Z,99.90
2022-08-08T23:29:25.517Z,99.90
2022-08-08T23:31:53.883Z,99.90
2022-08-08T23:34:22.363Z,99.90
2022-08-08T23:36:56.560Z,99.90
2022-08-08T23:39:31.903Z,99.90
2022-08-08T23:42:02.426Z,99.90
2022-08-08T23:44:31.835Z,99.90
2022-08-08T23:49:01.804Z,99.90
2022-08-08T23:49:49.612Z,99.90
2022-08-08T23:52:31.760Z,99.90
2022-08-08T23:55:07.146Z,99.90
2022-08-08T23:57:52.552Z,99.90
